sensor_id;sensor_type;location;lat;lon;timestamp;P1;durP1;ratioP1;P2;durP2;ratioP2
56728;SDS011;42612;52.232;7.560;2023-02-28T00:00:25;7.05;;;4.55;;
56728;SDS011;42612;52.232;7.560;2023-02-28T00:02:51;6.80;;;4.55;;
56728;SDS011;42612;52.232;7.560;2023-02-28T00:05:19;7.47;;;4.03;;
56728;SDS011;42612;52.232;7.560;2023-02-28T00:07:47;6.70;;;3.80;;
56728;SDS011;42612;52.232;7.560;2023-02-28T00:10:14;7.28;;;4.18;;
56728;SDS011;42612;52.232;7.560;2023-02-28T00:12:51;5.25;;;4.32;;
56728;SDS011;42612;52.232;7.560;2023-02-28T00:15:19;6.90;;;4.25;;
56728;SDS011;42612;52.232;7.560;2023-02-28T00:17:46;6.95;;;4.30;;
56728;SDS011;42612;52.232;7.560;2023-02-28T00:20:12;9.68;;;3.85;;
56728;SDS011;42612;52.232;7.560;2023-02-28T00:22:39;11.25;;;5.13;;
56728;SDS011;42612;52.232;7.560;2023-02-28T00:25:08;9.57;;;4.50;;
56728;SDS011;42612;52.232;7.560;2023-02-28T00:27:37;6.10;;;4.20;;
56728;SDS011;42612;52.232;7.560;2023-02-28T00:30:04;8.75;;;5.25;;
56728;SDS011;42612;52.232;7.560;2023-02-28T00:32:33;6.07;;;4.38;;
56728;SDS011;42612;52.232;7.560;2023-02-28T00:35:00;8.82;;;4.15;;
56728;SDS011;42612;52.232;7.560;2023-02-28T00:37:26;8.20;;;4.53;;
56728;SDS011;42612;52.232;7.560;2023-02-28T00:39:51;5.88;;;4.18;;
56728;SDS011;42612;52.232;7.560;2023-02-28T00:42:17;4.53;;;3.72;;
56728;SDS011;42612;52.232;7.560;2023-02-28T00:44:43;6.25;;;4.20;;
56728;SDS011;42612;52.232;7.560;2023-02-28T00:47:08;9.20;;;4.60;;
56728;SDS011;42612;52.232;7.560;2023-02-28T00:49:34;6.38;;;3.97;;
56728;SDS011;42612;52.232;7.560;2023-02-28T00:52:00;6.32;;;4.25;;
56728;SDS011;42612;52.232;7.560;2023-02-28T00:54:26;6.38;;;3.65;;
56728;SDS011;42612;52.232;7.560;2023-02-28T00:56:51;8.27;;;4.30;;
56728;SDS011;42612;52.232;7.560;2023-02-28T00:59:17;7.13;;;3.80;;
56728;SDS011;42612;52.232;7.560;2023-02-28T01:01:44;6.75;;;3.83;;
56728;SDS011;42612;52.232;7.560;2023-02-28T01:04:11;6.95;;;3.80;;
56728;SDS011;42612;52.232;7.560;2023-02-28T01:06:37;8.32;;;4.38;;
56728;SDS011;42612;52.232;7.560;2023-02-28T01:09:04;6.57;;;4.15;;
56728;SDS011;42612;52.232;7.560;2023-02-28T01:11:31;5.68;;;4.32;;
56728;SDS011;42612;52.232;7.560;2023-02-28T01:13:58;6.63;;;4.40;;
56728;SDS011;42612;52.232;7.560;2023-02-28T01:16:24;5.00;;;3.80;;
56728;SDS011;42612;52.232;7.560;2023-02-28T01:18:51;7.55;;;4.30;;
56728;SDS011;42612;52.232;7.560;2023-02-28T01:21:17;7.32;;;4.53;;
56728;SDS011;42612;52.232;7.560;2023-02-28T01:23:45;6.15;;;4.22;;
56728;SDS011;42612;52.232;7.560;2023-02-28T01:26:13;6.68;;;4.10;;
56728;SDS011;42612;52.232;7.560;2023-02-28T01:28:46;5.18;;;3.38;;
56728;SDS011;42612;52.232;7.560;2023-02-28T01:31:13;5.80;;;3.92;;
56728;SDS011;42612;52.232;7.560;2023-02-28T01:33:39;8.88;;;3.67;;
56728;SDS011;42612;52.232;7.560;2023-02-28T01:36:06;8.13;;;4.32;;
56728;SDS011;42612;52.232;7.560;2023-02-28T01:38:38;5.93;;;3.65;;
56728;SDS011;42612;52.232;7.560;2023-02-28T01:41:05;4.93;;;3.65;;
56728;SDS011;42612;52.232;7.560;2023-02-28T01:43:54;5.55;;;4.85;;
56728;SDS011;42612;52.232;7.560;2023-02-28T01:46:22;6.95;;;4.13;;
56728;SDS011;42612;52.232;7.560;2023-02-28T01:48:52;6.00;;;3.28;;
56728;SDS011;42612;52.232;7.560;2023-02-28T01:51:34;8.15;;;3.83;;
56728;SDS011;42612;52.232;7.560;2023-02-28T01:54:27;3.55;;;3.25;;
56728;SDS011;42612;52.232;7.560;2023-02-28T01:56:57;5.07;;;3.45;;
56728;SDS011;42612;52.232;7.560;2023-02-28T02:02:16;6.15;;;3.55;;
56728;SDS011;42612;52.232;7.560;2023-02-28T02:05:01;4.00;;;2.80;;
56728;SDS011;42612;52.232;7.560;2023-02-28T02:07:50;4.60;;;3.00;;
56728;SDS011;42612;52.232;7.560;2023-02-28T02:13:00;4.82;;;2.85;;
56728;SDS011;42612;52.232;7.560;2023-02-28T02:18:59;5.50;;;3.17;;
56728;SDS011;42612;52.232;7.560;2023-02-28T02:36:07;5.82;;;3.00;;
56728;SDS011;42612;52.232;7.560;2023-02-28T02:38:41;4.88;;;2.65;;
56728;SDS011;42612;52.232;7.560;2023-02-28T02:44:07;5.18;;;2.47;;
56728;SDS011;42612;52.232;7.560;2023-02-28T02:46:44;3.05;;;2.20;;
56728;SDS011;42612;52.232;7.560;2023-02-28T02:49:16;3.85;;;2.45;;
56728;SDS011;42612;52.232;7.560;2023-02-28T02:51:52;4.53;;;2.47;;
56728;SDS011;42612;52.232;7.560;2023-02-28T02:54:24;4.50;;;2.95;;
56728;SDS011;42612;52.232;7.560;2023-02-28T02:56:54;4.35;;;2.55;;
56728;SDS011;42612;52.232;7.560;2023-02-28T02:59:23;5.40;;;2.60;;
56728;SDS011;42612;52.232;7.560;2023-02-28T03:01:53;4.20;;;2.63;;
56728;SDS011;42612;52.232;7.560;2023-02-28T03:04:24;3.38;;;3.03;;
56728;SDS011;42612;52.232;7.560;2023-02-28T03:06:53;5.13;;;2.60;;
56728;SDS011;42612;52.232;7.560;2023-02-28T03:09:20;4.55;;;2.83;;
56728;SDS011;42612;52.232;7.560;2023-02-28T03:11:50;3.75;;;2.80;;
56728;SDS011;42612;52.232;7.560;2023-02-28T03:14:23;5.07;;;3.00;;
56728;SDS011;42612;52.232;7.560;2023-02-28T03:23:13;4.35;;;2.60;;
56728;SDS011;42612;52.232;7.560;2023-02-28T03:26:04;5.72;;;3.33;;
56728;SDS011;42612;52.232;7.560;2023-02-28T03:34:07;6.30;;;3.10;;
56728;SDS011;42612;52.232;7.560;2023-02-28T03:36:48;4.95;;;3.40;;
56728;SDS011;42612;52.232;7.560;2023-02-28T03:39:20;4.60;;;3.25;;
56728;SDS011;42612;52.232;7.560;2023-02-28T03:42:11;5.15;;;2.95;;
56728;SDS011;42612;52.232;7.560;2023-02-28T03:44:45;3.65;;;2.60;;
56728;SDS011;42612;52.232;7.560;2023-02-28T03:47:17;4.85;;;3.10;;
56728;SDS011;42612;52.232;7.560;2023-02-28T03:50:08;4.35;;;2.97;;
56728;SDS011;42612;52.232;7.560;2023-02-28T03:52:42;4.20;;;2.78;;
56728;SDS011;42612;52.232;7.560;2023-02-28T03:55:18;4.22;;;3.10;;
56728;SDS011;42612;52.232;7.560;2023-02-28T03:57:57;5.32;;;3.20;;
56728;SDS011;42612;52.232;7.560;2023-02-28T04:03:24;3.55;;;2.75;;
56728;SDS011;42612;52.232;7.560;2023-02-28T04:05:51;5.50;;;3.10;;
56728;SDS011;42612;52.232;7.560;2023-02-28T04:08:19;4.65;;;3.17;;
56728;SDS011;42612;52.232;7.560;2023-02-28T04:10:47;7.20;;;4.22;;
56728;SDS011;42612;52.232;7.560;2023-02-28T04:13:20;5.70;;;2.78;;
56728;SDS011;42612;52.232;7.560;2023-02-28T04:15:46;3.17;;;2.72;;
56728;SDS011;42612;52.232;7.560;2023-02-28T04:18:12;5.65;;;3.20;;
56728;SDS011;42612;52.232;7.560;2023-02-28T04:20:37;6.68;;;3.08;;
56728;SDS011;42612;52.232;7.560;2023-02-28T04:23:03;4.50;;;2.78;;
56728;SDS011;42612;52.232;7.560;2023-02-28T04:25:29;5.93;;;3.20;;
56728;SDS011;42612;52.232;7.560;2023-02-28T04:27:54;4.88;;;2.85;;
56728;SDS011;42612;52.232;7.560;2023-02-28T04:30:20;5.07;;;3.03;;
56728;SDS011;42612;52.232;7.560;2023-02-28T04:32:46;5.78;;;2.65;;
56728;SDS011;42612;52.232;7.560;2023-02-28T04:35:11;5.03;;;2.65;;
56728;SDS011;42612;52.232;7.560;2023-02-28T04:37:37;4.90;;;3.05;;
56728;SDS011;42612;52.232;7.560;2023-02-28T04:40:03;4.75;;;2.45;;
56728;SDS011;42612;52.232;7.560;2023-02-28T04:42:29;3.87;;;2.70;;
56728;SDS011;42612;52.232;7.560;2023-02-28T04:45:00;4.15;;;2.70;;
56728;SDS011;42612;52.232;7.560;2023-02-28T04:47:29;3.20;;;2.50;;
56728;SDS011;42612;52.232;7.560;2023-02-28T04:49:55;4.13;;;3.03;;
56728;SDS011;42612;52.232;7.560;2023-02-28T04:52:20;4.82;;;2.95;;
56728;SDS011;42612;52.232;7.560;2023-02-28T04:54:46;6.75;;;3.10;;
56728;SDS011;42612;52.232;7.560;2023-02-28T04:57:12;4.03;;;2.50;;
56728;SDS011;42612;52.232;7.560;2023-02-28T04:59:38;3.35;;;2.97;;
56728;SDS011;42612;52.232;7.560;2023-02-28T05:02:04;4.75;;;2.50;;
56728;SDS011;42612;52.232;7.560;2023-02-28T05:07:01;5.32;;;2.65;;
56728;SDS011;42612;52.232;7.560;2023-02-28T05:09:28;5.73;;;2.73;;
56728;SDS011;42612;52.232;7.560;2023-02-28T05:11:54;5.38;;;3.38;;
56728;SDS011;42612;52.232;7.560;2023-02-28T05:14:20;5.90;;;3.35;;
56728;SDS011;42612;52.232;7.560;2023-02-28T05:16:46;4.10;;;3.13;;
56728;SDS011;42612;52.232;7.560;2023-02-28T05:19:12;5.22;;;3.00;;
56728;SDS011;42612;52.232;7.560;2023-02-28T05:21:41;7.80;;;3.65;;
56728;SDS011;42612;52.232;7.560;2023-02-28T05:24:18;3.50;;;2.13;;
56728;SDS011;42612;52.232;7.560;2023-02-28T05:26:51;3.58;;;2.45;;
56728;SDS011;42612;52.232;7.560;2023-02-28T05:29:18;5.40;;;3.03;;
56728;SDS011;42612;52.232;7.560;2023-02-28T05:31:44;6.07;;;2.92;;
56728;SDS011;42612;52.232;7.560;2023-02-28T05:34:10;4.50;;;2.95;;
56728;SDS011;42612;52.232;7.560;2023-02-28T05:36:37;3.47;;;2.83;;
56728;SDS011;42612;52.232;7.560;2023-02-28T05:39:05;3.40;;;2.67;;
56728;SDS011;42612;52.232;7.560;2023-02-28T05:41:32;4.90;;;2.60;;
56728;SDS011;42612;52.232;7.560;2023-02-28T05:43:58;4.10;;;3.08;;
56728;SDS011;42612;52.232;7.560;2023-02-28T05:46:24;4.05;;;2.80;;
56728;SDS011;42612;52.232;7.560;2023-02-28T05:48:50;5.53;;;2.97;;
56728;SDS011;42612;52.232;7.560;2023-02-28T05:51:16;4.43;;;2.97;;
56728;SDS011;42612;52.232;7.560;2023-02-28T05:53:42;3.63;;;2.80;;
56728;SDS011;42612;52.232;7.560;2023-02-28T05:56:08;3.75;;;2.75;;
56728;SDS011;42612;52.232;7.560;2023-02-28T05:58:34;4.97;;;2.65;;
56728;SDS011;42612;52.232;7.560;2023-02-28T06:01:00;3.70;;;2.80;;
56728;SDS011;42612;52.232;7.560;2023-02-28T06:03:45;2.53;;;2.28;;
56728;SDS011;42612;52.232;7.560;2023-02-28T06:06:11;5.45;;;3.42;;
56728;SDS011;42612;52.232;7.560;2023-02-28T06:08:36;4.90;;;3.17;;
56728;SDS011;42612;52.232;7.560;2023-02-28T06:11:03;6.13;;;3.35;;
56728;SDS011;42612;52.232;7.560;2023-02-28T06:13:29;4.25;;;2.72;;
56728;SDS011;42612;52.232;7.560;2023-02-28T06:15:55;4.05;;;2.72;;
56728;SDS011;42612;52.232;7.560;2023-02-28T06:18:20;2.90;;;2.40;;
56728;SDS011;42612;52.232;7.560;2023-02-28T06:20:52;2.90;;;2.50;;
56728;SDS011;42612;52.232;7.560;2023-02-28T06:23:19;13.50;;;6.78;;
56728;SDS011;42612;52.232;7.560;2023-02-28T06:25:46;10.68;;;6.13;;
56728;SDS011;42612;52.232;7.560;2023-02-28T06:28:12;24.00;;;10.80;;
56728;SDS011;42612;52.232;7.560;2023-02-28T06:30:38;5.32;;;3.67;;
56728;SDS011;42612;52.232;7.560;2023-02-28T06:33:04;5.90;;;3.03;;
56728;SDS011;42612;52.232;7.560;2023-02-28T06:35:30;7.65;;;4.15;;
56728;SDS011;42612;52.232;7.560;2023-02-28T06:37:56;6.30;;;3.53;;
56728;SDS011;42612;52.232;7.560;2023-02-28T06:40:22;13.38;;;6.10;;
56728;SDS011;42612;52.232;7.560;2023-02-28T06:42:48;25.88;;;9.60;;
56728;SDS011;42612;52.232;7.560;2023-02-28T06:45:14;32.17;;;11.35;;
56728;SDS011;42612;52.232;7.560;2023-02-28T06:47:40;48.88;;;17.67;;
56728;SDS011;42612;52.232;7.560;2023-02-28T06:50:07;23.50;;;8.95;;
56728;SDS011;42612;52.232;7.560;2023-02-28T06:52:35;23.13;;;7.43;;
56728;SDS011;42612;52.232;7.560;2023-02-28T06:55:02;12.40;;;5.28;;
56728;SDS011;42612;52.232;7.560;2023-02-28T06:57:30;6.60;;;3.80;;
56728;SDS011;42612;52.232;7.560;2023-02-28T06:59:58;6.45;;;3.53;;
56728;SDS011;42612;52.232;7.560;2023-02-28T07:02:25;7.53;;;3.80;;
56728;SDS011;42612;52.232;7.560;2023-02-28T07:04:52;6.72;;;3.63;;
56728;SDS011;42612;52.232;7.560;2023-02-28T07:07:17;5.25;;;3.25;;
56728;SDS011;42612;52.232;7.560;2023-02-28T07:09:43;6.15;;;3.50;;
56728;SDS011;42612;52.232;7.560;2023-02-28T07:12:09;3.92;;;2.80;;
56728;SDS011;42612;52.232;7.560;2023-02-28T07:14:36;5.53;;;3.40;;
56728;SDS011;42612;52.232;7.560;2023-02-28T07:17:02;5.10;;;3.13;;
56728;SDS011;42612;52.232;7.560;2023-02-28T07:19:28;8.05;;;2.92;;
56728;SDS011;42612;52.232;7.560;2023-02-28T07:21:54;5.15;;;3.30;;
56728;SDS011;42612;52.232;7.560;2023-02-28T07:24:19;3.85;;;2.53;;
56728;SDS011;42612;52.232;7.560;2023-02-28T07:26:46;5.13;;;2.25;;
56728;SDS011;42612;52.232;7.560;2023-02-28T07:29:11;5.85;;;2.90;;
56728;SDS011;42612;52.232;7.560;2023-02-28T07:31:37;5.53;;;2.55;;
56728;SDS011;42612;52.232;7.560;2023-02-28T07:34:02;3.00;;;2.67;;
56728;SDS011;42612;52.232;7.560;2023-02-28T07:36:28;5.60;;;3.05;;
56728;SDS011;42612;52.232;7.560;2023-02-28T07:38:54;4.40;;;2.70;;
56728;SDS011;42612;52.232;7.560;2023-02-28T07:41:20;5.18;;;2.85;;
56728;SDS011;42612;52.232;7.560;2023-02-28T07:43:48;5.20;;;2.80;;
56728;SDS011;42612;52.232;7.560;2023-02-28T07:46:14;8.00;;;3.20;;
56728;SDS011;42612;52.232;7.560;2023-02-28T07:48:41;7.18;;;2.90;;
56728;SDS011;42612;52.232;7.560;2023-02-28T07:51:08;6.50;;;3.10;;
56728;SDS011;42612;52.232;7.560;2023-02-28T07:53:34;5.35;;;3.08;;
56728;SDS011;42612;52.232;7.560;2023-02-28T07:56:00;9.57;;;3.63;;
56728;SDS011;42612;52.232;7.560;2023-02-28T07:58:27;6.57;;;2.83;;
56728;SDS011;42612;52.232;7.560;2023-02-28T08:00:55;4.03;;;2.55;;
56728;SDS011;42612;52.232;7.560;2023-02-28T08:03:21;4.72;;;3.00;;
56728;SDS011;42612;52.232;7.560;2023-02-28T08:05:49;4.72;;;3.25;;
56728;SDS011;42612;52.232;7.560;2023-02-28T08:08:15;3.50;;;2.67;;
56728;SDS011;42612;52.232;7.560;2023-02-28T08:10:42;5.03;;;2.78;;
56728;SDS011;42612;52.232;7.560;2023-02-28T08:13:08;4.53;;;2.58;;
56728;SDS011;42612;52.232;7.560;2023-02-28T08:15:35;2.33;;;2.13;;
56728;SDS011;42612;52.232;7.560;2023-02-28T08:18:01;3.95;;;2.85;;
56728;SDS011;42612;52.232;7.560;2023-02-28T08:20:27;3.78;;;2.70;;
56728;SDS011;42612;52.232;7.560;2023-02-28T08:22:52;4.18;;;2.47;;
56728;SDS011;42612;52.232;7.560;2023-02-28T08:25:19;3.72;;;2.55;;
56728;SDS011;42612;52.232;7.560;2023-02-28T08:27:45;5.00;;;2.65;;
56728;SDS011;42612;52.232;7.560;2023-02-28T08:30:12;2.78;;;1.80;;
56728;SDS011;42612;52.232;7.560;2023-02-28T08:32:39;3.13;;;2.15;;
56728;SDS011;42612;52.232;7.560;2023-02-28T08:35:05;3.40;;;1.77;;
56728;SDS011;42612;52.232;7.560;2023-02-28T08:37:34;9.95;;;2.28;;
56728;SDS011;42612;52.232;7.560;2023-02-28T08:39:59;3.25;;;1.38;;
56728;SDS011;42612;52.232;7.560;2023-02-28T08:42:25;2.72;;;1.45;;
56728;SDS011;42612;52.232;7.560;2023-02-28T08:44:51;2.55;;;1.77;;
56728;SDS011;42612;52.232;7.560;2023-02-28T08:47:16;7.93;;;1.63;;
56728;SDS011;42612;52.232;7.560;2023-02-28T08:49:42;3.60;;;1.80;;
56728;SDS011;42612;52.232;7.560;2023-02-28T08:52:08;1.23;;;1.10;;
56728;SDS011;42612;52.232;7.560;2023-02-28T08:54:33;1.50;;;1.20;;
56728;SDS011;42612;52.232;7.560;2023-02-28T08:57:00;1.70;;;1.33;;
56728;SDS011;42612;52.232;7.560;2023-02-28T08:59:27;4.10;;;1.50;;
56728;SDS011;42612;52.232;7.560;2023-02-28T09:01:53;2.70;;;1.30;;
56728;SDS011;42612;52.232;7.560;2023-02-28T09:04:18;2.47;;;1.25;;
56728;SDS011;42612;52.232;7.560;2023-02-28T09:06:44;1.27;;;1.10;;
56728;SDS011;42612;52.232;7.560;2023-02-28T09:09:10;2.92;;;1.48;;
56728;SDS011;42612;52.232;7.560;2023-02-28T09:11:36;2.15;;;1.10;;
56728;SDS011;42612;52.232;7.560;2023-02-28T09:14:02;3.45;;;1.25;;
56728;SDS011;42612;52.232;7.560;2023-02-28T09:16:29;2.05;;;1.38;;
56728;SDS011;42612;52.232;7.560;2023-02-28T09:18:58;1.30;;;0.88;;
56728;SDS011;42612;52.232;7.560;2023-02-28T09:21:24;1.60;;;1.27;;
56728;SDS011;42612;52.232;7.560;2023-02-28T09:23:50;3.17;;;1.23;;
56728;SDS011;42612;52.232;7.560;2023-02-28T09:26:17;2.22;;;1.20;;
56728;SDS011;42612;52.232;7.560;2023-02-28T09:28:47;1.45;;;1.08;;
56728;SDS011;42612;52.232;7.560;2023-02-28T09:31:14;1.30;;;1.10;;
56728;SDS011;42612;52.232;7.560;2023-02-28T09:33:45;1.30;;;0.90;;
56728;SDS011;42612;52.232;7.560;2023-02-28T09:36:12;1.63;;;1.00;;
56728;SDS011;42612;52.232;7.560;2023-02-28T09:38:38;1.95;;;0.90;;
56728;SDS011;42612;52.232;7.560;2023-02-28T09:41:10;3.45;;;0.90;;
56728;SDS011;42612;52.232;7.560;2023-02-28T09:43:40;0.82;;;0.70;;
56728;SDS011;42612;52.232;7.560;2023-02-28T09:46:18;1.50;;;1.20;;
56728;SDS011;42612;52.232;7.560;2023-02-28T09:48:51;1.60;;;1.10;;
56728;SDS011;42612;52.232;7.560;2023-02-28T09:51:33;2.38;;;0.57;;
56728;SDS011;42612;52.232;7.560;2023-02-28T09:54:13;1.48;;;0.88;;
56728;SDS011;42612;52.232;7.560;2023-02-28T09:56:44;12.98;;;1.13;;
56728;SDS011;42612;52.232;7.560;2023-02-28T09:59:21;1.05;;;0.75;;
56728;SDS011;42612;52.232;7.560;2023-02-28T10:05:16;0.57;;;0.55;;
56728;SDS011;42612;52.232;7.560;2023-02-28T10:10:51;2.58;;;0.73;;
56728;SDS011;42612;52.232;7.560;2023-02-28T10:16:07;0.80;;;0.80;;
56728;SDS011;42612;52.232;7.560;2023-02-28T10:18:56;0.52;;;0.52;;
56728;SDS011;42612;52.232;7.560;2023-02-28T10:21:36;1.35;;;0.80;;
56728;SDS011;42612;52.232;7.560;2023-02-28T10:24:20;1.73;;;0.90;;
56728;SDS011;42612;52.232;7.560;2023-02-28T10:27:13;0.77;;;0.60;;
56728;SDS011;42612;52.232;7.560;2023-02-28T10:29:43;1.00;;;0.88;;
56728;SDS011;42612;52.232;7.560;2023-02-28T10:32:23;2.88;;;1.10;;
56728;SDS011;42612;52.232;7.560;2023-02-28T10:34:55;1.95;;;1.25;;
56728;SDS011;42612;52.232;7.560;2023-02-28T10:37:39;1.13;;;0.75;;
56728;SDS011;42612;52.232;7.560;2023-02-28T10:40:07;1.80;;;0.95;;
56728;SDS011;42612;52.232;7.560;2023-02-28T10:43:00;1.75;;;1.05;;
56728;SDS011;42612;52.232;7.560;2023-02-28T10:45:33;3.28;;;0.90;;
56728;SDS011;42612;52.232;7.560;2023-02-28T10:48:44;1.67;;;1.23;;
56728;SDS011;42612;52.232;7.560;2023-02-28T10:51:01;1.08;;;1.02;;
56728;SDS011;42612;52.232;7.560;2023-02-28T10:58:48;0.95;;;0.95;;
56728;SDS011;42612;52.232;7.560;2023-02-28T11:09:50;1.30;;;1.20;;
56728;SDS011;42612;52.232;7.560;2023-02-28T11:15:04;2.50;;;1.30;;
56728;SDS011;42612;52.232;7.560;2023-02-28T11:17:56;2.03;;;1.10;;
56728;SDS011;42612;52.232;7.560;2023-02-28T11:20:37;1.92;;;1.38;;
56728;SDS011;42612;52.232;7.560;2023-02-28T11:23:05;1.42;;;1.33;;
56728;SDS011;42612;52.232;7.560;2023-02-28T11:25:37;1.30;;;1.20;;
56728;SDS011;42612;52.232;7.560;2023-02-28T11:28:05;3.13;;;1.27;;
56728;SDS011;42612;52.232;7.560;2023-02-28T11:30:59;2.00;;;1.52;;
56728;SDS011;42612;52.232;7.560;2023-02-28T11:33:32;1.60;;;1.02;;
56728;SDS011;42612;52.232;7.560;2023-02-28T11:36:18;1.42;;;1.33;;
56728;SDS011;42612;52.232;7.560;2023-02-28T11:38:50;1.52;;;1.10;;
56728;SDS011;42612;52.232;7.560;2023-02-28T11:56:53;2.53;;;1.60;;
56728;SDS011;42612;52.232;7.560;2023-02-28T12:02:55;1.15;;;1.08;;
56728;SDS011;42612;52.232;7.560;2023-02-28T12:05:38;1.10;;;1.02;;
56728;SDS011;42612;52.232;7.560;2023-02-28T12:19:48;2.35;;;1.20;;
56728;SDS011;42612;52.232;7.560;2023-02-28T12:28:31;1.15;;;1.05;;
56728;SDS011;42612;52.232;7.560;2023-02-28T12:31:37;1.98;;;1.13;;
56728;SDS011;42612;52.232;7.560;2023-02-28T12:34:01;1.30;;;1.20;;
56728;SDS011;42612;52.232;7.560;2023-02-28T12:36:32;1.65;;;1.10;;
56728;SDS011;42612;52.232;7.560;2023-02-28T12:39:12;2.25;;;1.25;;
56728;SDS011;42612;52.232;7.560;2023-02-28T12:41:48;1.08;;;1.00;;
56728;SDS011;42612;52.232;7.560;2023-02-28T12:44:32;1.00;;;0.90;;
56728;SDS011;42612;52.232;7.560;2023-02-28T12:47:13;1.35;;;1.25;;
56728;SDS011;42612;52.232;7.560;2023-02-28T12:49:49;1.00;;;1.00;;
56728;SDS011;42612;52.232;7.560;2023-02-28T12:52:47;1.50;;;1.02;;
56728;SDS011;42612;52.232;7.560;2023-02-28T12:55:29;1.05;;;1.02;;
56728;SDS011;42612;52.232;7.560;2023-02-28T12:58:28;1.23;;;0.95;;
56728;SDS011;42612;52.232;7.560;2023-02-28T13:01:15;2.72;;;1.50;;
56728;SDS011;42612;52.232;7.560;2023-02-28T13:09:59;1.10;;;1.00;;
56728;SDS011;42612;52.232;7.560;2023-02-28T13:12:27;1.30;;;1.20;;
56728;SDS011;42612;52.232;7.560;2023-02-28T13:17:54;1.10;;;0.98;;
56728;SDS011;42612;52.232;7.560;2023-02-28T13:22:53;1.65;;;0.98;;
56728;SDS011;42612;52.232;7.560;2023-02-28T13:28:13;2.15;;;1.30;;
56728;SDS011;42612;52.232;7.560;2023-02-28T13:31:14;1.30;;;1.20;;
56728;SDS011;42612;52.232;7.560;2023-02-28T13:38:44;1.52;;;1.42;;
56728;SDS011;42612;52.232;7.560;2023-02-28T13:44:03;2.17;;;1.30;;
56728;SDS011;42612;52.232;7.560;2023-02-28T13:46:36;1.38;;;1.20;;
56728;SDS011;42612;52.232;7.560;2023-02-28T13:49:18;1.52;;;1.40;;
56728;SDS011;42612;52.232;7.560;2023-02-28T14:06:58;1.55;;;1.45;;
56728;SDS011;42612;52.232;7.560;2023-02-28T14:09:25;1.43;;;1.30;;
56728;SDS011;42612;52.232;7.560;2023-02-28T14:20:48;1.60;;;1.50;;
56728;SDS011;42612;52.232;7.560;2023-02-28T14:38:01;2.85;;;1.42;;
56728;SDS011;42612;52.232;7.560;2023-02-28T14:40:43;4.80;;;1.98;;
56728;SDS011;42612;52.232;7.560;2023-02-28T14:46:37;1.10;;;1.08;;
56728;SDS011;42612;52.232;7.560;2023-02-28T14:49:05;3.90;;;1.50;;
56728;SDS011;42612;52.232;7.560;2023-02-28T14:52:01;3.95;;;1.70;;
56728;SDS011;42612;52.232;7.560;2023-02-28T14:57:06;2.22;;;1.33;;
56728;SDS011;42612;52.232;7.560;2023-02-28T14:59:57;1.98;;;1.55;;
56728;SDS011;42612;52.232;7.560;2023-02-28T15:02:25;3.03;;;1.52;;
56728;SDS011;42612;52.232;7.560;2023-02-28T15:05:00;1.50;;;1.38;;
56728;SDS011;42612;52.232;7.560;2023-02-28T15:08:03;2.55;;;1.45;;
56728;SDS011;42612;52.232;7.560;2023-02-28T15:10:42;1.88;;;1.50;;
56728;SDS011;42612;52.232;7.560;2023-02-28T15:13:14;1.50;;;1.40;;
56728;SDS011;42612;52.232;7.560;2023-02-28T15:15:48;2.15;;;1.90;;
56728;SDS011;42612;52.232;7.560;2023-02-28T15:21:06;4.38;;;1.45;;
56728;SDS011;42612;52.232;7.560;2023-02-28T15:23:49;2.33;;;1.50;;
56728;SDS011;42612;52.232;7.560;2023-02-28T15:26:29;1.92;;;1.80;;
56728;SDS011;42612;52.232;7.560;2023-02-28T15:29:00;1.65;;;1.55;;
56728;SDS011;42612;52.232;7.560;2023-02-28T15:31:46;2.05;;;1.75;;
56728;SDS011;42612;52.232;7.560;2023-02-28T15:34:18;2.53;;;1.58;;
56728;SDS011;42612;52.232;7.560;2023-02-28T15:42:41;1.70;;;1.60;;
56728;SDS011;42612;52.232;7.560;2023-02-28T15:53:59;2.28;;;1.80;;
56728;SDS011;42612;52.232;7.560;2023-02-28T15:56:29;3.90;;;1.58;;
56728;SDS011;42612;52.232;7.560;2023-02-28T15:58:57;29.17;;;3.92;;
56728;SDS011;42612;52.232;7.560;2023-02-28T16:01:32;2.40;;;1.60;;
56728;SDS011;42612;52.232;7.560;2023-02-28T16:04:13;7.50;;;1.90;;
56728;SDS011;42612;52.232;7.560;2023-02-28T16:09:12;4.57;;;1.80;;
56728;SDS011;42612;52.232;7.560;2023-02-28T16:11:50;8.98;;;2.08;;
56728;SDS011;42612;52.232;7.560;2023-02-28T16:14:20;3.88;;;2.10;;
56728;SDS011;42612;52.232;7.560;2023-02-28T16:16:56;24.83;;;2.40;;
56728;SDS011;42612;52.232;7.560;2023-02-28T16:19:29;2.03;;;1.67;;
56728;SDS011;42612;52.232;7.560;2023-02-28T16:21:55;4.03;;;2.03;;
56728;SDS011;42612;52.232;7.560;2023-02-28T16:24:21;3.80;;;1.95;;
56728;SDS011;42612;52.232;7.560;2023-02-28T16:26:48;3.22;;;1.85;;
56728;SDS011;42612;52.232;7.560;2023-02-28T16:29:27;4.20;;;2.30;;
56728;SDS011;42612;52.232;7.560;2023-02-28T16:31:57;3.97;;;1.83;;
56728;SDS011;42612;52.232;7.560;2023-02-28T16:34:24;2.70;;;1.45;;
56728;SDS011;42612;52.232;7.560;2023-02-28T16:36:50;5.90;;;1.88;;
56728;SDS011;42612;52.232;7.560;2023-02-28T16:39:16;3.78;;;1.70;;
56728;SDS011;42612;52.232;7.560;2023-02-28T16:41:43;5.93;;;1.73;;
56728;SDS011;42612;52.232;7.560;2023-02-28T16:44:11;2.72;;;1.50;;
56728;SDS011;42612;52.232;7.560;2023-02-28T16:47:02;4.70;;;1.95;;
56728;SDS011;42612;52.232;7.560;2023-02-28T16:49:29;3.67;;;1.88;;
56728;SDS011;42612;52.232;7.560;2023-02-28T16:51:55;6.38;;;1.63;;
56728;SDS011;42612;52.232;7.560;2023-02-28T16:54:21;2.00;;;1.25;;
56728;SDS011;42612;52.232;7.560;2023-02-28T16:56:48;6.75;;;1.70;;
56728;SDS011;42612;52.232;7.560;2023-02-28T16:59:15;3.58;;;1.90;;
56728;SDS011;42612;52.232;7.560;2023-02-28T17:01:52;4.95;;;1.88;;
56728;SDS011;42612;52.232;7.560;2023-02-28T17:04:20;7.80;;;1.45;;
56728;SDS011;42612;52.232;7.560;2023-02-28T17:06:46;7.25;;;1.98;;
56728;SDS011;42612;52.232;7.560;2023-02-28T17:09:19;5.53;;;1.77;;
56728;SDS011;42612;52.232;7.560;2023-02-28T17:11:47;3.38;;;1.92;;
56728;SDS011;42612;52.232;7.560;2023-02-28T17:14:13;7.30;;;1.88;;
56728;SDS011;42612;52.232;7.560;2023-02-28T17:16:40;1.55;;;1.45;;
56728;SDS011;42612;52.232;7.560;2023-02-28T17:19:09;1.80;;;1.70;;
56728;SDS011;42612;52.232;7.560;2023-02-28T17:21:38;9.00;;;1.95;;
56728;SDS011;42612;52.232;7.560;2023-02-28T17:24:24;4.07;;;1.90;;
56728;SDS011;42612;52.232;7.560;2023-02-28T17:26:50;4.93;;;1.88;;
56728;SDS011;42612;52.232;7.560;2023-02-28T17:29:17;4.38;;;1.55;;
56728;SDS011;42612;52.232;7.560;2023-02-28T17:31:45;2.55;;;2.10;;
56728;SDS011;42612;52.232;7.560;2023-02-28T17:34:11;3.13;;;1.60;;
56728;SDS011;42612;52.232;7.560;2023-02-28T17:36:43;3.90;;;1.63;;
56728;SDS011;42612;52.232;7.560;2023-02-28T17:41:39;4.13;;;1.53;;
56728;SDS011;42612;52.232;7.560;2023-02-28T17:46:33;2.55;;;1.50;;
56728;SDS011;42612;52.232;7.560;2023-02-28T17:48:59;2.10;;;1.58;;
56728;SDS011;42612;52.232;7.560;2023-02-28T17:51:26;7.90;;;2.25;;
56728;SDS011;42612;52.232;7.560;2023-02-28T17:53:51;5.18;;;1.83;;
56728;SDS011;42612;52.232;7.560;2023-02-28T17:56:22;3.50;;;1.77;;
56728;SDS011;42612;52.232;7.560;2023-02-28T17:58:49;3.90;;;1.83;;
56728;SDS011;42612;52.232;7.560;2023-02-28T18:01:18;1.77;;;1.58;;
56728;SDS011;42612;52.232;7.560;2023-02-28T18:03:45;2.00;;;1.90;;
56728;SDS011;42612;52.232;7.560;2023-02-28T18:06:30;5.15;;;1.90;;
56728;SDS011;42612;52.232;7.560;2023-02-28T18:09:15;2.63;;;2.15;;
56728;SDS011;42612;52.232;7.560;2023-02-28T18:11:43;2.10;;;1.58;;
56728;SDS011;42612;52.232;7.560;2023-02-28T18:14:14;2.90;;;1.48;;
56728;SDS011;42612;52.232;7.560;2023-02-28T18:16:41;2.00;;;1.70;;
56728;SDS011;42612;52.232;7.560;2023-02-28T18:19:08;2.42;;;1.38;;
56728;SDS011;42612;52.232;7.560;2023-02-28T18:21:39;2.15;;;1.70;;
56728;SDS011;42612;52.232;7.560;2023-02-28T18:24:10;2.92;;;1.63;;
56728;SDS011;42612;52.232;7.560;2023-02-28T18:26:36;1.48;;;1.38;;